Terminal Aerodrome Forecast
Issued by NWS

Home | Current Version | Previous Version | Graphics & Text | Print | Product List | Glossary On
Versions: 1 2 3 4 5 6 7 8 9 10 11 12 13 14 15
000
FTUS45 KGGW 240118 AAA
TAFSDY
TAF AMD
KSDY 240118Z 2401/2424 12008KT P6SM -SHRA VCTS BKN050CB BKN100
     FM240200 VRB10G25KT 6SM -TSRA BKN050CB BKN100
     FM240400 10007KT P6SM -SHRA VCTS BKN050CB
     FM240900 VRB04KT P6SM SCT050
     FM241600 24008KT P6SM SCT024=

USA.gov is the U.S. government's official web portal to all federal, state and local government web resources and services.